createdAt,value
2022-10-27T00:00:53.892Z,100.00
2022-10-27T00:03:21.277Z,100.00
2022-10-27T00:05:49.213Z,100.00
2022-10-27T00:08:22.303Z,100.00
2022-10-27T00:11:00.886Z,100.00
2022-10-27T00:13:28.945Z,100.00
2022-10-27T00:15:58.051Z,100.00
2022-10-27T00:18:25.661Z,100.00
2022-10-27T00:21:08.984Z,100.00
2022-10-27T00:23:38.063Z,100.00
2022-10-27T00:26:07.927Z,100.00
2022-10-27T00:28:35.370Z,100.00
2022-10-27T00:31:11.536Z,100.00
2022-10-27T00:33:38.996Z,100.00
2022-10-27T00:36:13.557Z,100.00
2022-10-27T00:38:41.272Z,100.00
2022-10-27T00:41:22.738Z,100.00
2022-10-27T00:43:50.144Z,100.00
2022-10-27T00:46:39.471Z,100.00
2022-10-27T00:49:22.829Z,100.00
2022-10-27T00:51:59.491Z,100.00
2022-10-27T00:54:29.236Z,100.00
2022-10-27T00:56:58.556Z,100.00
2022-10-27T00:59:26.218Z,100.00
2022-10-27T01:01:55.440Z,100.00
2022-10-27T01:04:53.257Z,100.00
2022-10-27T01:07:22.497Z,100.00
2022-10-27T01:09:50.166Z,100.00
2022-10-27T01:12:17.674Z,100.00
2022-10-27T01:14:45.645Z,100.00
2022-10-27T01:17:54.938Z,100.00
2022-10-27T01:20:49.035Z,100.00
2022-10-27T01:23:34.702Z,100.00
2022-10-27T01:26:17.105Z,100.00
2022-10-27T01:29:05.571Z,100.00
2022-10-27T01:32:02.612Z,100.00
2022-10-27T01:34:34.805Z,100.00
2022-10-27T01:37:09.773Z,100.00
2022-10-27T01:39:48.575Z,100.00
2022-10-27T01:42:25.467Z,100.00
2022-10-27T01:44:56.795Z,100.00
2022-10-27T01:47:25.635Z,100.00
2022-10-27T01:49:56.750Z,100.00
2022-10-27T01:52:47.529Z,100.00
2022-10-27T01:55:34.998Z,100.00
2022-10-27T01:58:30.754Z,100.00
2022-10-27T02:01:26.223Z,100.00
2022-10-27T02:04:01.419Z,100.00
2022-10-27T02:06:50.934Z,100.00
2022-10-27T02:09:31.207Z,100.00
2022-10-27T02:12:04.798Z,100.00
2022-10-27T02:14:34.853Z,100.00
2022-10-27T02:17:04.131Z,100.00
2022-10-27T02:19:37.391Z,100.00
2022-10-27T02:22:05.673Z,100.00
2022-10-27T02:24:33.703Z,100.00
2022-10-27T02:27:10.056Z,100.00
2022-10-27T02:29:48.705Z,100.00
2022-10-27T02:32:23.290Z,100.00
2022-10-27T02:34:51.934Z,100.00
2022-10-27T02:37:25.618Z,100.00
2022-10-27T02:39:53.038Z,100.00
2022-10-27T02:42:20.289Z,100.00
2022-10-27T02:44:47.573Z,100.00
2022-10-27T02:47:14.890Z,100.00
2022-10-27T02:49:42.321Z,100.00
2022-10-27T02:52:09.709Z,100.00
2022-10-27T02:54:37.125Z,100.00
2022-10-27T02:57:04.428Z,100.00
2022-10-27T02:59:31.836Z,100.00
2022-10-27T03:01:59.222Z,100.00
2022-10-27T03:04:26.653Z,100.00
2022-10-27T03:06:54.123Z,100.00
2022-10-27T03:09:21.442Z,100.00
2022-10-27T03:11:48.915Z,100.00
2022-10-27T03:14:16.278Z,100.00
2022-10-27T03:16:43.684Z,100.00
2022-10-27T03:19:11.054Z,100.00
2022-10-27T03:21:38.446Z,100.00
2022-10-27T03:24:06.035Z,100.00
2022-10-27T03:26:33.337Z,100.00
2022-10-27T03:29:01.027Z,100.00
2022-10-27T03:31:28.338Z,100.00
2022-10-27T03:33:55.613Z,100.00
2022-10-27T03:36:22.957Z,100.00
2022-10-27T03:38:50.320Z,100.00
2022-10-27T03:41:17.664Z,100.00
2022-10-27T03:43:45.021Z,100.00
2022-10-27T03:46:12.378Z,100.00
2022-10-27T03:48:39.754Z,100.00
2022-10-27T03:51:07.127Z,100.00
2022-10-27T03:53:34.430Z,100.00
2022-10-27T03:56:01.767Z,100.00
2022-10-27T03:58:29.213Z,100.00
2022-10-27T04:01:02.481Z,100.00
2022-10-27T04:03:29.931Z,100.00
2022-10-27T04:05:57.322Z,100.00
2022-10-27T04:08:24.777Z,100.00
2022-10-27T04:10:52.062Z,100.00
2022-10-27T04:13:19.395Z,100.00
2022-10-27T04:15:46.694Z,100.00
2022-10-27T04:18:13.995Z,100.00
2022-10-27T04:20:41.308Z,100.00
2022-10-27T04:23:08.592Z,100.00
2022-10-27T04:25:36.088Z,100.00
2022-10-27T04:28:08.024Z,100.00
2022-10-27T04:30:36.501Z,100.00
2022-10-27T04:33:03.876Z,100.00
2022-10-27T04:35:31.404Z,100.00
2022-10-27T04:37:59.067Z,100.00
2022-10-27T04:40:26.620Z,100.00
2022-10-27T04:42:54.241Z,100.00
2022-10-27T04:45:22.080Z,100.00
2022-10-27T04:47:49.712Z,100.00
2022-10-27T04:50:18.018Z,100.00
2022-10-27T04:52:59.670Z,100.00
2022-10-27T04:55:28.576Z,100.00
2022-10-27T04:57:56.043Z,100.00
2022-10-27T05:00:24.389Z,100.00
2022-10-27T05:02:59.598Z,100.00
2022-10-27T05:05:28.785Z,100.00
2022-10-27T05:07:58.025Z,100.00
2022-10-27T05:10:25.710Z,100.00
2022-10-27T05:12:53.559Z,100.00
2022-10-27T05:15:21.274Z,100.00
2022-10-27T05:17:49.405Z,100.00
2022-10-27T05:20:17.374Z,100.00
2022-10-27T05:22:44.731Z,100.00
2022-10-27T05:25:12.715Z,100.00
2022-10-27T05:27:40.490Z,100.00
2022-10-27T05:30:09.044Z,100.00
2022-10-27T05:32:36.405Z,100.00
2022-10-27T05:35:03.859Z,100.00
2022-10-27T05:37:31.184Z,100.00
2022-10-27T05:39:58.527Z,100.00
2022-10-27T05:42:25.502Z,100.00
2022-10-27T05:44:52.686Z,100.00
2022-10-27T05:47:20.100Z,100.00
2022-10-27T05:49:47.396Z,100.00
2022-10-27T05:52:14.760Z,100.00
2022-10-27T05:54:42.201Z,100.00
2022-10-27T05:57:09.535Z,100.00
2022-10-27T05:59:37.031Z,100.00
2022-10-27T06:02:04.438Z,100.00
2022-10-27T06:04:31.777Z,100.00
2022-10-27T06:06:59.066Z,100.00
2022-10-27T06:09:26.417Z,100.00
2022-10-27T06:11:53.800Z,100.00
2022-10-27T06:14:21.896Z,100.00
2022-10-27T06:16:51.036Z,100.00
2022-10-27T06:19:18.521Z,100.00
2022-10-27T06:21:45.873Z,100.00
2022-10-27T06:24:13.164Z,100.00
2022-10-27T06:26:40.541Z,100.00
2022-10-27T06:29:08.087Z,100.00
2022-10-27T06:31:35.858Z,100.00
2022-10-27T06:34:03.206Z,100.00
2022-10-27T06:36:30.650Z,100.00
2022-10-27T06:38:58.263Z,100.00
2022-10-27T06:41:26.851Z,100.00
2022-10-27T06:43:54.330Z,100.00
2022-10-27T06:46:21.829Z,100.00
2022-10-27T06:48:49.272Z,100.00
2022-10-27T06:51:16.588Z,100.00
2022-10-27T06:53:43.960Z,100.00
2022-10-27T06:56:11.295Z,100.00
2022-10-27T06:58:41.469Z,100.00
2022-10-27T07:01:09.073Z,100.00
2022-10-27T07:03:38.314Z,100.00
2022-10-27T07:06:06.718Z,100.00
2022-10-27T07:08:34.231Z,100.00
2022-10-27T07:11:01.642Z,100.00
2022-10-27T07:13:28.975Z,100.00
2022-10-27T07:15:56.341Z,100.00
2022-10-27T07:18:23.673Z,100.00
2022-10-27T07:20:53.261Z,100.00
2022-10-27T07:23:21.101Z,100.00
2022-10-27T07:25:51.557Z,100.00
2022-10-27T07:28:19.058Z,100.00
2022-10-27T07:30:48.274Z,100.00
2022-10-27T07:33:16.281Z,100.00
2022-10-27T07:35:47.908Z,100.00
2022-10-27T07:38:15.604Z,100.00
2022-10-27T07:40:42.876Z,100.00
2022-10-27T07:43:10.890Z,100.00
2022-10-27T07:45:41.328Z,100.00
2022-10-27T07:48:14.389Z,100.00
2022-10-27T07:50:43.375Z,100.00
2022-10-27T07:53:11.259Z,100.00
2022-10-27T07:55:38.619Z,100.00
2022-10-27T07:58:15.677Z,100.00
2022-10-27T08:00:46.320Z,100.00
2022-10-27T08:03:26.230Z,100.00
2022-10-27T08:05:53.320Z,100.00
2022-10-27T08:08:21.759Z,100.00
2022-10-27T08:10:50.398Z,100.00
2022-10-27T08:13:18.329Z,100.00
2022-10-27T08:15:45.830Z,100.00
2022-10-27T08:18:13.762Z,100.00
2022-10-27T08:20:47.150Z,100.00
2022-10-27T08:23:18.001Z,100.00
2022-10-27T08:25:45.511Z,100.00
2022-10-27T08:28:14.715Z,100.00
2022-10-27T08:30:50.677Z,100.00
2022-10-27T08:33:21.164Z,100.00
2022-10-27T08:35:50.240Z,100.00
2022-10-27T08:38:18.388Z,100.00
2022-10-27T08:41:21.155Z,100.00
2022-10-27T08:44:39.836Z,100.00
2022-10-27T08:47:19.160Z,100.00
2022-10-27T08:50:12.461Z,100.00
2022-10-27T08:53:05.266Z,100.00
2022-10-27T08:55:56.430Z,100.00
2022-10-27T08:58:39.869Z,100.00
2022-10-27T09:01:09.672Z,100.00
2022-10-27T09:04:07.007Z,100.00
2022-10-27T09:06:58.498Z,100.00
2022-10-27T09:09:58.749Z,100.00
2022-10-27T09:12:31.377Z,100.00
2022-10-27T09:15:19.632Z,100.00
2022-10-27T09:18:00.893Z,100.00
2022-10-27T09:20:57.653Z,100.00
2022-10-27T09:23:41.636Z,100.00
2022-10-27T09:26:10.186Z,100.00
2022-10-27T09:28:49.236Z,100.00
2022-10-27T09:31:27.876Z,100.00
2022-10-27T09:34:06.995Z,100.00
2022-10-27T09:36:33.960Z,100.00
2022-10-27T09:39:01.173Z,100.00
2022-10-27T09:41:28.230Z,100.00
2022-10-27T09:43:58.664Z,100.00
2022-10-27T09:46:29.949Z,100.00
2022-10-27T09:49:09.851Z,100.00
2022-10-27T09:51:53.232Z,100.00
2022-10-27T09:54:39.282Z,95.53
2022-10-27T09:57:19.069Z,85.19
2022-10-27T10:00:24.170Z,67.89
2022-10-27T10:05:38.116Z,58.75
2022-10-27T10:08:25.774Z,56.00
2022-10-27T10:10:59.288Z,54.25
2022-10-27T10:13:37.355Z,51.05
2022-10-27T10:16:10.358Z,49.32
2022-10-27T10:18:45.841Z,49.13
2022-10-27T10:21:14.708Z,47.37
2022-10-27T10:23:51.856Z,45.67
2022-10-27T10:26:22.779Z,44.18
2022-10-27T10:28:53.149Z,43.52
2022-10-27T10:31:27.058Z,43.69
2022-10-27T10:34:03.089Z,43.21
2022-10-27T10:36:35.248Z,42.45
2022-10-27T10:39:20.655Z,41.45
2022-10-27T10:42:11.091Z,39.70
2022-10-27T10:44:38.983Z,38.81
2022-10-27T10:47:25.942Z,37.61
2022-10-27T10:49:58.677Z,37.42
2022-10-27T10:52:33.822Z,36.25
2022-10-27T10:55:15.286Z,37.61
2022-10-27T10:57:48.285Z,37.70
2022-10-27T11:00:17.792Z,38.39
2022-10-27T11:03:01.627Z,37.06
2022-10-27T11:05:37.102Z,36.74
2022-10-27T11:08:06.359Z,36.33
2022-10-27T11:10:40.504Z,36.12
2022-10-27T11:13:19.236Z,35.96
2022-10-27T11:15:55.369Z,35.00
2022-10-27T11:18:33.272Z,34.29
2022-10-27T11:21:25.661Z,32.78
2022-10-27T11:23:58.368Z,33.57
2022-10-27T11:26:37.197Z,34.97
2022-10-27T11:29:26.035Z,33.87
2022-10-27T11:32:33.620Z,33.65
2022-10-27T11:35:25.857Z,32.91
2022-10-27T11:38:23.322Z,33.59
2022-10-27T11:41:16.697Z,33.84
2022-10-27T11:44:00.122Z,33.48
2022-10-27T11:46:41.595Z,34.28
2022-10-27T11:49:45.417Z,35.12
2022-10-27T11:52:44.180Z,35.09
2022-10-27T11:55:15.523Z,34.79
2022-10-27T11:58:16.232Z,34.48
2022-10-27T12:01:14.951Z,33.62
2022-10-27T12:04:11.246Z,33.11
2022-10-27T12:06:44.502Z,33.78
2022-10-27T12:09:45.880Z,34.11
2022-10-27T12:12:19.191Z,35.49
2022-10-27T12:15:18.976Z,35.86
2022-10-27T12:18:04.746Z,39.02
2022-10-27T12:20:39.102Z,42.28
2022-10-27T12:23:12.782Z,46.49
2022-10-27T12:26:08.994Z,49.62
2022-10-27T12:28:37.150Z,52.66
2022-10-27T12:31:09.492Z,55.82
2022-10-27T12:33:48.086Z,56.31
2022-10-27T12:36:23.592Z,54.68
2022-10-27T12:39:18.660Z,56.34
2022-10-27T12:42:01.154Z,57.15
2022-10-27T12:44:37.527Z,58.83
2022-10-27T12:47:09.881Z,61.01
2022-10-27T12:50:05.209Z,60.34
2022-10-27T12:52:39.098Z,59.85
2022-10-27T12:55:18.720Z,64.69
2022-10-27T12:58:12.402Z,64.82
2022-10-27T13:00:52.579Z,63.78
2022-10-27T13:04:04.764Z,64.57
2022-10-27T13:06:51.868Z,65.58
2022-10-27T13:09:54.712Z,64.34
2022-10-27T13:12:39.707Z,64.57
2022-10-27T13:15:40.196Z,64.55
2022-10-27T13:18:51.536Z,66.38
2022-10-27T13:21:37.574Z,66.69
2022-10-27T13:24:07.931Z,67.63
2022-10-27T13:26:54.934Z,66.58
2022-10-27T13:29:36.909Z,68.41
2022-10-27T13:32:17.370Z,67.73
2022-10-27T13:35:04.676Z,67.07
2022-10-27T13:37:49.940Z,67.98
2022-10-27T13:40:22.801Z,66.83
2022-10-27T13:42:55.664Z,65.92
2022-10-27T13:45:37.279Z,66.46
2022-10-27T13:48:24.929Z,64.63
2022-10-27T13:50:57.670Z,64.51
2022-10-27T13:53:28.072Z,65.62
2022-10-27T13:56:30.616Z,66.36
2022-10-27T13:59:21.867Z,64.63
2022-10-27T14:01:58.310Z,64.59
2022-10-27T14:04:51.201Z,65.08
2022-10-27T14:07:19.734Z,63.81
2022-10-27T14:09:50.824Z,63.87
2022-10-27T14:12:34.978Z,64.92
2022-10-27T14:15:11.647Z,64.39
2022-10-27T14:17:43.388Z,63.97
2022-10-27T14:20:38.067Z,64.30
2022-10-27T14:23:15.353Z,66.30
2022-10-27T14:25:42.895Z,66.15
2022-10-27T14:28:22.806Z,65.18
2022-10-27T14:31:10.511Z,65.81
2022-10-27T14:33:38.153Z,65.60
2022-10-27T14:36:15.787Z,65.73
2022-10-27T14:38:54.732Z,65.51
2022-10-27T14:41:28.842Z,65.58
2022-10-27T14:44:01.152Z,65.93
2022-10-27T14:46:34.777Z,66.17
2022-10-27T14:49:06.140Z,66.31
2022-10-27T14:51:37.859Z,67.54
2022-10-27T14:56:39.198Z,67.95
2022-10-27T14:59:21.952Z,68.31
2022-10-27T15:01:50.331Z,68.94
2022-10-27T15:04:28.901Z,69.89
2022-10-27T15:07:00.542Z,70.02
2022-10-27T15:09:39.799Z,70.50
2022-10-27T15:12:23.913Z,71.19
2022-10-27T15:14:52.472Z,71.86
2022-10-27T15:17:32.224Z,72.42
2022-10-27T15:20:02.092Z,73.59
2022-10-27T15:22:30.120Z,74.50
2022-10-27T15:24:59.050Z,74.86
2022-10-27T15:27:34.506Z,75.18
2022-10-27T15:30:02.738Z,75.25
2022-10-27T15:32:38.944Z,75.54
2022-10-27T15:35:30.045Z,75.93
2022-10-27T15:37:58.878Z,76.36
2022-10-27T15:40:29.073Z,77.09
2022-10-27T15:42:57.151Z,77.57
2022-10-27T15:45:37.726Z,77.86
2022-10-27T15:48:05.597Z,78.62
2022-10-27T15:50:39.659Z,79.11
2022-10-27T15:53:20.073Z,80.04
2022-10-27T15:56:03.840Z,81.18
2022-10-27T15:58:38.365Z,81.90
2022-10-27T16:01:48.089Z,84.54
2022-10-27T16:04:25.418Z,85.02
2022-10-27T16:09:39.600Z,89.46
2022-10-27T16:12:31.239Z,91.23
2022-10-27T16:15:02.646Z,92.73
2022-10-27T16:17:59.038Z,93.73
2022-10-27T16:20:32.630Z,95.36
2022-10-27T16:23:00.397Z,96.54
2022-10-27T16:25:31.500Z,97.18
2022-10-27T16:28:04.229Z,98.15
2022-10-27T16:30:31.644Z,99.01
2022-10-27T16:33:04.260Z,100.00
2022-10-27T16:35:31.700Z,100.00
2022-10-27T16:38:01.493Z,100.00
2022-10-27T16:40:29.291Z,100.00
2022-10-27T16:42:57.026Z,100.00
2022-10-27T16:45:24.815Z,100.00
2022-10-27T16:47:54.264Z,100.00
2022-10-27T16:50:22.190Z,100.00
2022-10-27T16:52:56.373Z,100.00
2022-10-27T16:55:24.450Z,100.00
2022-10-27T16:57:57.002Z,100.00
2022-10-27T17:00:24.872Z,100.00
2022-10-27T17:02:52.321Z,100.00
2022-10-27T17:05:19.689Z,100.00
2022-10-27T17:07:48.108Z,100.00
2022-10-27T17:10:16.931Z,100.00
2022-10-27T17:12:44.884Z,100.00
2022-10-27T17:15:12.808Z,100.00
2022-10-27T17:17:43.791Z,100.00
2022-10-27T17:20:11.451Z,100.00
2022-10-27T17:22:39.212Z,100.00
2022-10-27T17:25:07.203Z,100.00
2022-10-27T17:27:34.591Z,100.00
2022-10-27T17:30:02.301Z,100.00
2022-10-27T17:32:30.073Z,100.00
2022-10-27T17:34:57.790Z,100.00
2022-10-27T17:37:25.160Z,100.00
2022-10-27T17:39:52.620Z,100.00
2022-10-27T17:42:20.009Z,100.00
2022-10-27T17:44:47.767Z,100.00
2022-10-27T17:47:15.490Z,100.00
2022-10-27T17:49:42.862Z,100.00
2022-10-27T17:52:10.190Z,100.00
2022-10-27T17:54:39.030Z,100.00
2022-10-27T17:57:08.342Z,100.00
2022-10-27T17:59:36.295Z,100.00
2022-10-27T18:02:04.244Z,100.00
2022-10-27T18:04:32.157Z,100.00
2022-10-27T18:07:00.004Z,100.00
2022-10-27T18:09:27.526Z,100.00
2022-10-27T18:11:55.275Z,100.00
2022-10-27T18:14:23.767Z,100.00
2022-10-27T18:16:51.882Z,100.00
2022-10-27T18:19:19.605Z,100.00
2022-10-27T18:21:48.462Z,100.00
2022-10-27T18:24:17.130Z,100.00
2022-10-27T18:26:48.090Z,100.00
2022-10-27T18:29:18.507Z,100.00
2022-10-27T18:31:47.611Z,100.00
2022-10-27T18:34:16.847Z,100.00
2022-10-27T18:36:45.444Z,100.00
2022-10-27T18:39:19.435Z,100.00
2022-10-27T18:41:49.076Z,100.00
2022-10-27T18:44:17.114Z,100.00
2022-10-27T18:46:44.694Z,100.00
2022-10-27T18:49:20.322Z,100.00
2022-10-27T18:51:53.156Z,100.00
2022-10-27T18:54:20.503Z,100.00
2022-10-27T18:56:48.028Z,100.00
2022-10-27T18:59:15.606Z,100.00
2022-10-27T19:01:44.233Z,100.00
2022-10-27T19:04:12.111Z,100.00
2022-10-27T19:06:39.904Z,100.00
2022-10-27T19:09:07.468Z,100.00
2022-10-27T19:11:36.623Z,100.00
2022-10-27T19:14:04.643Z,100.00
2022-10-27T19:16:32.462Z,100.00
2022-10-27T19:19:01.525Z,100.00
2022-10-27T19:21:30.298Z,100.00
2022-10-27T19:24:00.229Z,100.00
2022-10-27T19:26:30.183Z,100.00
2022-10-27T19:28:58.754Z,100.00
2022-10-27T19:31:29.644Z,100.00
2022-10-27T19:33:58.698Z,100.00
2022-10-27T19:36:29.660Z,100.00
2022-10-27T19:38:59.155Z,100.00
2022-10-27T19:41:29.639Z,100.00
2022-10-27T19:43:58.534Z,100.00
2022-10-27T19:46:27.562Z,100.00
2022-10-27T19:48:57.412Z,100.00
2022-10-27T19:51:28.156Z,100.00
2022-10-27T19:53:57.557Z,100.00
2022-10-27T19:56:28.568Z,100.00
2022-10-27T19:59:01.294Z,100.00
2022-10-27T20:01:31.302Z,100.00
2022-10-27T20:04:07.526Z,100.00
2022-10-27T20:06:35.485Z,100.00
2022-10-27T20:09:03.640Z,100.00
2022-10-27T20:11:33.241Z,100.00
2022-10-27T20:14:02.645Z,100.00
2022-10-27T20:16:33.458Z,100.00
2022-10-27T20:19:15.710Z,100.00
2022-10-27T20:21:43.156Z,100.00
2022-10-27T20:24:13.784Z,100.00
2022-10-27T20:26:46.532Z,100.00
2022-10-27T20:29:14.889Z,100.00
2022-10-27T20:31:45.006Z,100.00
2022-10-27T20:34:13.292Z,100.00
2022-10-27T20:36:42.195Z,100.00
2022-10-27T20:39:11.531Z,100.00
2022-10-27T20:41:39.364Z,100.00
2022-10-27T20:44:07.560Z,100.00
2022-10-27T20:46:35.572Z,100.00
2022-10-27T20:49:03.351Z,100.00
2022-10-27T20:51:32.556Z,100.00
2022-10-27T20:54:00.845Z,100.00
2022-10-27T20:56:30.696Z,100.00
2022-10-27T20:58:58.285Z,100.00
2022-10-27T21:01:29.170Z,100.00
2022-10-27T21:04:02.892Z,100.00
2022-10-27T21:06:32.758Z,100.00
2022-10-27T21:09:05.431Z,100.00
2022-10-27T21:11:33.047Z,100.00
2022-10-27T21:14:02.202Z,100.00
2022-10-27T21:16:30.546Z,100.00
2022-10-27T21:19:00.556Z,100.00
2022-10-27T21:21:29.836Z,100.00
2022-10-27T21:23:59.751Z,100.00
2022-10-27T21:26:27.493Z,100.00
2022-10-27T21:28:57.008Z,100.00
2022-10-27T21:31:26.887Z,100.00
2022-10-27T21:33:54.516Z,100.00
2022-10-27T21:36:22.134Z,100.00
2022-10-27T21:38:51.046Z,100.00
2022-10-27T21:41:21.112Z,100.00
2022-10-27T21:43:50.791Z,100.00
2022-10-27T21:46:20.581Z,100.00
2022-10-27T21:48:48.278Z,100.00
2022-10-27T21:51:16.493Z,100.00
2022-10-27T21:53:44.074Z,100.00
2022-10-27T21:56:12.262Z,100.00
2022-10-27T21:58:40.401Z,100.00
2022-10-27T22:01:16.723Z,100.00
2022-10-27T22:03:44.930Z,100.00
2022-10-27T22:06:20.939Z,100.00
2022-10-27T22:08:49.173Z,100.00
2022-10-27T22:11:25.381Z,100.00
2022-10-27T22:13:53.246Z,100.00
2022-10-27T22:16:22.737Z,100.00
2022-10-27T22:18:55.313Z,100.00
2022-10-27T22:21:23.301Z,100.00
2022-10-27T22:23:50.665Z,100.00
2022-10-27T22:26:20.484Z,100.00
2022-10-27T22:28:49.140Z,100.00
2022-10-27T22:31:19.480Z,100.00
2022-10-27T22:33:47.355Z,100.00
2022-10-27T22:36:17.313Z,100.00
2022-10-27T22:38:45.787Z,100.00
2022-10-27T22:41:15.465Z,100.00
2022-10-27T22:43:43.993Z,100.00
2022-10-27T22:46:26.484Z,100.00
2022-10-27T22:48:54.236Z,100.00
2022-10-27T22:51:23.506Z,100.00
2022-10-27T22:53:53.063Z,100.00
2022-10-27T22:56:22.825Z,100.00
2022-10-27T22:58:53.042Z,100.00
2022-10-27T23:01:23.621Z,100.00
2022-10-27T23:03:59.694Z,100.00
2022-10-27T23:06:29.704Z,100.00
2022-10-27T23:09:02.726Z,100.00
2022-10-27T23:11:32.894Z,100.00
2022-10-27T23:14:00.491Z,100.00
2022-10-27T23:16:29.410Z,100.00
2022-10-27T23:18:58.157Z,100.00
2022-10-27T23:21:26.224Z,100.00
2022-10-27T23:23:55.107Z,100.00
2022-10-27T23:26:25.196Z,100.00
2022-10-27T23:28:55.941Z,100.00
2022-10-27T23:31:24.345Z,100.00
2022-10-27T23:33:57.023Z,100.00
2022-10-27T23:36:25.301Z,100.00
2022-10-27T23:38:53.659Z,100.00
2022-10-27T23:41:21.548Z,100.00
2022-10-27T23:43:53.611Z,100.00
2022-10-27T23:46:22.373Z,100.00
2022-10-27T23:48:49.716Z,100.00
2022-10-27T23:51:17.100Z,100.00
2022-10-27T23:53:44.429Z,100.00
2022-10-27T23:56:12.854Z,100.00
2022-10-27T23:58:42.462Z,100.00
